Time;durP1;ratioP1;P1;durP2;ratioP2;P2;SDS_P1;SDS_P2;PMS_P1;PMS_P2;Temp;Humidity;BMP_temperature;BMP_pressure;BME280_temperature;BME280_humidity;BME280_pressure;Samples;Min_cycle;Max_cycle;Signal;HPM_P1;HPM_P2
2022/11/12 00:00:50;;;;;;;7.97;4.97;;;;;;;2.53;100.00;103049.06;1030853;28;20351;-84
2022/11/12 00:01:40;;;;;;;6.00;4.93;;;;;;;2.50;100.00;103044.03;1031144;28;20348;-84
2022/11/12 00:02:30;;;;;;;6.72;5.65;;;;;;;2.52;100.00;103042.13;1023420;29;20050;-84
2022/11/12 00:03:20;;;;;;;10.68;4.90;;;;;;;2.55;100.00;103041.91;1022862;29;20055;-84
2022/11/12 00:04:10;;;;;;;6.80;5.45;;;;;;;2.56;100.00;103043.56;1026640;28;20337;-84
2022/11/12 00:05:00;;;;;;;8.45;6.18;;;;;;;2.56;100.00;103042.75;1020866;29;20398;-84
2022/11/12 00:05:52;;;;;;;5.28;4.78;;;;;;;2.58;100.00;103044.31;1023027;29;20290;-84
2022/11/12 00:06:42;;;;;;;13.68;6.50;;;;;;;2.63;100.00;103044.81;1031016;28;20332;-84
2022/11/12 00:07:32;;;;;;;5.15;4.65;;;;;;;2.63;100.00;103041.34;1028825;28;20341;-84
2022/11/12 00:08:22;;;;;;;5.22;4.68;;;;;;;2.63;100.00;103050.06;1031148;28;20950;-84
2022/11/12 00:09:12;;;;;;;5.13;4.63;;;;;;;2.59;100.00;103051.25;1026915;28;20344;-84
2022/11/12 00:10:04;;;;;;;7.05;5.70;;;;;;;2.61;100.00;103041.47;1025274;28;20155;-84
2022/11/12 00:10:54;;;;;;;5.55;4.82;;;;;;;2.54;100.00;103039.38;1030959;28;20070;-84
2022/11/12 00:11:44;;;;;;;6.43;4.90;;;;;;;2.57;100.00;103040.00;1031396;28;20148;-84
2022/11/12 00:12:34;;;;;;;8.23;5.68;;;;;;;2.56;100.00;103043.56;1027299;28;20869;-83
2022/11/12 00:13:24;;;;;;;7.53;6.38;;;;;;;2.58;100.00;103040.84;1030706;28;20351;-84
2022/11/12 00:14:13;;;;;;;6.20;5.03;;;;;;;2.57;100.00;103040.00;1031203;28;20301;-84
2022/11/12 00:15:04;;;;;;;8.35;5.70;;;;;;;2.57;100.00;103041.78;1026957;28;20724;-84
2022/11/12 00:15:54;;;;;;;6.03;5.05;;;;;;;2.53;100.00;103049.06;1026759;28;20409;-84
2022/11/12 00:16:44;;;;;;;6.40;4.43;;;;;;;2.58;100.00;103039.03;1027373;28;20511;-84
2022/11/12 00:17:34;;;;;;;8.50;5.90;;;;;;;2.55;100.00;103044.53;1029928;28;20328;-84
2022/11/12 00:18:24;;;;;;;7.63;5.75;;;;;;;2.52;100.00;103042.13;1033623;28;21029;-84
2022/11/12 00:19:14;;;;;;;6.60;5.43;;;;;;;2.57;100.00;103045.25;1035428;28;20746;-84
2022/11/12 00:20:05;;;;;;;8.25;6.32;;;;;;;2.59;100.00;103047.78;1031527;28;20419;-83
2022/11/12 00:20:55;;;;;;;;;;;;;;;2.58;100.00;103046.94;1031647;28;20288;-84
2022/11/12 00:21:46;;;;;;;15.55;4.75;;;;;;;2.57;100.00;103050.53;1027543;28;19988;-84
2022/11/12 00:22:36;;;;;;;12.48;6.28;;;;;;;2.56;100.00;103042.75;1030944;28;20277;-84
2022/11/12 00:23:25;;;;;;;22.60;5.93;;;;;;;2.58;100.00;103046.09;1030885;28;20328;-84
2022/11/12 00:24:15;;;;;;;23.15;5.97;;;;;;;2.58;100.00;103046.94;1031062;28;20735;-84
2022/11/12 00:25:06;;;;;;;10.88;5.30;;;;;;;2.60;100.00;103047.66;1034673;28;20679;-84
2022/11/12 00:26:00;;;;;;;16.52;5.88;;;;;;;2.60;100.00;103050.31;1031205;28;20296;-84
2022/11/12 00:26:50;;;;;;;16.70;5.43;;;;;;;2.60;100.00;103055.56;1025333;28;20749;-84
2022/11/12 00:27:40;;;;;;;5.95;5.25;;;;;;;2.60;100.00;103044.19;1027133;28;20349;-84
2022/11/12 00:28:30;;;;;;;6.65;4.85;;;;;;;2.59;100.00;103048.63;1025990;28;20312;-84
2022/11/12 00:29:26;;;;;;;7.20;5.25;;;;;;;2.63;100.00;103050.06;1027577;28;20338;-84
2022/11/12 00:30:16;;;;;;;9.20;5.15;;;;;;;2.64;100.00;103051.75;1028811;28;20346;-84
2022/11/12 00:31:08;;;;;;;8.35;6.32;;;;;;;2.65;100.00;103049.97;1031405;28;20865;-84
2022/11/12 00:31:59;;;;;;;9.02;5.38;;;;;;;2.67;100.00;103054.16;1030011;28;20779;-84
2022/11/12 00:32:48;;;;;;;10.07;5.07;;;;;;;2.64;100.00;103057.00;1029019;28;20412;-83
2022/11/12 00:33:40;;;;;;;14.13;5.03;;;;;;;2.62;100.00;103056.28;1030839;28;20316;-84
2022/11/12 00:34:31;;;;;;;9.73;5.97;;;;;;;2.62;100.00;103058.91;1030541;28;20356;-84
2022/11/12 00:35:21;;;;;;;5.68;4.85;;;;;;;2.58;100.00;103046.94;1029491;28;20297;-84
2022/11/12 00:36:11;;;;;;;7.65;5.65;;;;;;;2.56;100.00;103054.09;1034846;28;20053;-84
2022/11/12 00:37:03;;;;;;;9.48;4.75;;;;;;;2.58;100.00;103046.94;1030179;28;20327;-84
2022/11/12 00:37:54;;;;;;;;;;;;;;;2.57;100.00;103047.91;1027057;28;20612;-84
2022/11/12 00:38:44;;;;;;;6.38;4.70;;;;;;;2.55;100.00;103049.78;1030684;28;19929;-83
2022/11/12 00:39:34;;;;;;;8.25;5.90;;;;;;;2.54;100.00;103050.75;1033801;28;20304;-84
2022/11/12 00:40:24;;;;;;;5.70;4.40;;;;;;;2.54;100.00;103045.47;1029453;28;20321;-83
2022/11/12 00:41:14;;;;;;;6.40;5.43;;;;;;;2.58;100.00;103038.22;1026849;28;20727;-84
2022/11/12 00:42:04;;;;;;;8.07;5.75;;;;;;;2.56;100.00;103046.22;1025440;28;20094;-84
2022/11/12 00:42:54;;;;;;;7.85;5.13;;;;;;;2.55;100.00;103047.16;1030570;28;20284;-84
2022/11/12 00:43:44;;;;;;;7.10;5.65;;;;;;;2.56;100.00;103043.56;1026793;28;20365;-84
2022/11/12 00:44:35;;;;;;;11.48;6.15;;;;;;;2.57;100.00;103045.25;1021735;29;20883;-84
2022/11/12 00:45:25;;;;;;;7.70;5.82;;;;;;;2.51;100.00;103040.44;1030857;28;20293;-84
2022/11/12 00:46:15;;;;;;;6.72;5.50;;;;;;;2.50;100.00;103038.75;1030288;28;20374;-84
2022/11/12 00:47:05;;;;;;;11.18;6.20;;;;;;;2.55;100.00;103041.91;1023134;29;20285;-83
2022/11/12 00:47:55;;;;;;;11.20;6.45;;;;;;;2.56;100.00;103043.56;1024896;28;20349;-84
2022/11/12 00:48:45;;;;;;;10.30;5.18;;;;;;;2.55;100.00;103036.63;1030645;28;20301;-84
2022/11/12 00:49:35;;;;;;;12.70;6.20;;;;;;;2.54;100.00;103039.38;1034443;28;20053;-84
2022/11/12 00:50:25;;;;;;;10.18;5.00;;;;;;;2.49;100.00;103044.97;1029886;28;20285;-84
2022/11/12 00:51:15;;;;;;;8.57;4.95;;;;;;;2.50;100.00;103044.03;1026578;28;20297;-84
2022/11/12 00:52:05;;;;;;;6.03;4.43;;;;;;;2.47;100.00;103034.56;1030961;28;20937;-84
2022/11/12 00:52:55;;;;;;;7.40;4.40;;;;;;;2.45;100.00;103040.84;1034738;28;20406;-84
2022/11/12 00:53:48;;;;;;;9.32;5.30;;;;;;;2.46;100.00;103039.91;1026931;28;20309;-83
2022/11/12 00:54:38;;;;;;;6.25;5.57;;;;;;;2.57;100.00;103037.38;1023251;28;20323;-84
2022/11/12 00:55:28;;;;;;;7.20;4.82;;;;;;;2.56;100.00;103040.13;1031432;28;20349;-84
2022/11/12 00:56:18;;;;;;;6.82;4.82;;;;;;;2.52;100.00;103036.88;1030190;28;20320;-84
2022/11/12 00:57:09;;;;;;;6.70;4.57;;;;;;;2.52;100.00;103036.88;1031128;28;20292;-84
2022/11/12 00:57:58;;;;;;;6.43;3.95;;;;;;;2.48;100.00;103036.25;1030343;28;20639;-84
2022/11/12 00:58:48;;;;;;;6.97;4.25;;;;;;;2.44;100.00;103041.81;1031106;28;20790;-84
2022/11/12 00:59:38;;;;;;;9.80;4.70;;;;;;;2.43;100.00;103037.50;1031562;28;20373;-84
2022/11/12 01:00:29;;;;;;;5.88;4.50;;;;;;;2.42;100.00;103041.06;1035591;28;20399;-84
2022/11/12 01:01:19;;;;;;;4.53;4.10;;;;;;;2.40;100.00;103037.72;1031180;28;20375;-84
2022/11/12 01:02:09;;;;;;;5.55;4.40;;;;;;;2.38;100.00;103034.34;1031193;28;20308;-84
2022/11/12 01:02:59;;;;;;;4.97;4.45;;;;;;;2.38;100.00;103042.25;1034934;28;20308;-84
2022/11/12 01:03:50;;;;;;;5.07;4.57;;;;;;;2.38;100.00;103042.25;1030179;28;20715;-84
2022/11/12 01:04:40;;;;;;;6.97;4.00;;;;;;;2.35;100.00;103039.84;1027548;28;20608;-84
2022/11/12 01:05:31;;;;;;;5.47;4.72;;;;;;;2.35;100.00;103034.56;1030448;28;20701;-84
2022/11/12 01:06:22;;;;;;;5.50;4.55;;;;;;;2.29;100.00;103035.00;1033708;28;20288;-83
2022/11/12 01:07:14;;;;;;;10.45;4.72;;;;;;;2.31;100.00;103030.50;1031284;28;20417;-84
2022/11/12 01:08:04;;;;;;;7.10;5.10;;;;;;;2.23;100.00;103038.09;1025015;28;20461;-83
2022/11/12 01:08:55;;;;;;;5.38;4.38;;;;;;;2.18;100.00;103038.38;1023050;29;20286;-84
2022/11/12 01:09:45;;;;;;;5.70;4.35;;;;;;;2.13;100.00;103035.25;1026885;28;20341;-84
2022/11/12 01:10:35;;;;;;;12.65;4.60;;;;;;;2.08;100.00;103026.84;1031301;28;20173;-84
2022/11/12 01:11:27;;;;;;;7.97;4.38;;;;;;;2.02;100.00;103037.78;1035135;28;20387;-84
2022/11/12 01:12:17;;;;;;;4.28;3.88;;;;;;;2.00;100.00;103030.00;1029703;28;20100;-84
2022/11/12 01:13:07;;;;;;;4.57;4.05;;;;;;;1.99;100.00;103036.22;1021612;29;20366;-84
2022/11/12 01:14:00;;;;;;;7.00;4.20;;;;;;;1.97;100.00;103039.91;1022529;29;20337;-84
2022/11/12 01:14:50;;;;;;;8.07;4.47;;;;;;;1.99;100.00;103036.22;1026607;28;20443;-84
2022/11/12 01:15:41;;;;;;;7.32;5.20;;;;;;;2.04;100.00;103034.09;1029860;28;20336;-84
2022/11/12 01:16:35;;;;;;;7.47;4.63;;;;;;;2.00;100.00;103034.44;1031590;28;20748;-84
2022/11/12 01:17:26;;;;;;;8.13;5.45;;;;;;;1.98;100.00;103039.78;1030757;28;20889;-84
2022/11/12 01:18:16;;;;;;;5.93;4.57;;;;;;;2.00;100.00;103035.25;1025817;28;20340;-84
2022/11/12 01:19:09;;;;;;;6.03;5.10;;;;;;;2.04;100.00;103041.16;1025182;28;20587;-84
2022/11/12 01:19:59;;;;;;;6.60;5.10;;;;;;;2.07;100.00;103036.50;1026902;28;20281;-84
2022/11/12 01:20:50;;;;;;;6.40;4.63;;;;;;;2.08;100.00;103038.19;1027034;28;20649;-84
2022/11/12 01:21:41;;;;;;;7.53;4.68;;;;;;;2.10;100.00;103036.28;1029323;28;20102;-84
2022/11/12 01:22:31;;;;;;;6.88;4.40;;;;;;;2.10;100.00;103033.66;1028927;28;20341;-84
2022/11/12 01:23:21;;;;;;;5.35;4.75;;;;;;;2.11;100.00;103037.97;1022874;28;20350;-84
2022/11/12 01:24:11;;;;;;;8.10;6.00;;;;;;;2.12;100.00;103037.03;1025555;28;20335;-84
2022/11/12 01:25:01;;;;;;;4.60;4.20;;;;;;;2.15;100.00;103034.19;1026810;28;20281;-84
2022/11/12 01:25:51;;;;;;;8.18;6.38;;;;;;;2.07;100.00;103041.78;1030639;28;20786;-84
2022/11/12 01:26:41;;;;;;;6.80;5.47;;;;;;;2.08;100.00;103038.19;1035049;28;20287;-84
2022/11/12 01:27:32;;;;;;;5.90;5.15;;;;;;;2.11;100.00;103030.09;1034844;28;20296;-84
2022/11/12 01:28:23;;;;;;;7.03;4.28;;;;;;;2.12;100.00;103037.03;1030429;28;20285;-84
2022/11/12 01:29:13;;;;;;;7.75;5.10;;;;;;;2.15;100.00;103034.19;1027493;28;20109;-84
2022/11/12 01:30:04;;;;;;;6.80;5.65;;;;;;;2.12;100.00;103039.66;1026485;28;20054;-84
2022/11/12 01:30:54;;;;;;;10.63;4.80;;;;;;;2.11;100.00;103043.22;1025902;28;20337;-84
2022/11/12 01:31:44;;;;;;;7.80;5.15;;;;;;;2.11;100.00;103037.97;1030805;28;20161;-84
2022/11/12 01:32:36;;;;;;;6.18;5.38;;;;;;;2.17;100.00;103034.91;1034722;28;20284;-84
2022/11/12 01:33:26;;;;;;;5.78;5.13;;;;;;;2.15;100.00;103033.34;1031008;28;20332;-87
2022/11/12 01:34:15;;;;;;;5.43;4.75;;;;;;;2.14;100.00;103032.50;1027488;28;20108;-87
2022/11/12 01:35:06;;;;;;;9.50;5.15;;;;;;;2.14;100.00;103037.75;1030111;28;20881;-87
2022/11/12 01:35:57;;;;;;;9.25;4.93;;;;;;;2.13;100.00;103036.06;1030803;28;20727;-87
2022/11/12 01:36:48;;;;;;;5.80;4.60;;;;;;;2.13;100.00;103035.25;1031290;28;20326;-87
2022/11/12 01:37:37;;;;;;;9.23;5.38;;;;;;;2.08;100.00;103032.09;1031191;28;20335;-87
2022/11/12 01:38:27;;;;;;;6.32;5.05;;;;;;;2.07;100.00;103031.25;1034875;28;20351;-87
2022/11/12 01:39:18;;;;;;;7.95;6.38;;;;;;;2.06;100.00;103037.47;1035568;28;20287;-87
2022/11/12 01:40:09;;;;;;;8.30;4.50;;;;;;;2.04;100.00;103031.47;1030571;28;20057;-87
2022/11/12 01:40:59;;;;;;;5.47;4.32;;;;;;;2.02;100.00;103033.38;1031217;28;20335;-84
2022/11/12 01:41:49;;;;;;;5.20;4.57;;;;;;;2.07;100.00;103035.69;1031078;28;20116;-84
2022/11/12 01:42:39;;;;;;;6.75;5.40;;;;;;;2.07;100.00;103035.69;1026983;28;20384;-84
2022/11/12 01:43:29;;;;;;;4.70;4.18;;;;;;;2.03;100.00;103035.06;1025325;28;20309;-84
2022/11/12 01:44:22;;;;;;;5.57;4.97;;;;;;;2.06;100.00;103029.56;1026821;28;20337;-84
2022/11/12 01:45:17;;;;;;;7.78;4.85;;;;;;;2.05;100.00;103037.56;1030859;28;20281;-84
2022/11/12 01:46:24;;;;;;;7.63;5.30;;;;;;;2.02;100.00;103033.38;1034276;28;20334;-84
2022/11/12 01:47:21;;;;;;;7.68;4.88;;;;;;;2.01;100.00;103028.22;1033411;28;20339;-84
2022/11/12 01:48:24;;;;;;;7.60;4.70;;;;;;;2.05;100.00;103027.91;1035567;28;20280;-87
2022/11/12 01:49:21;;;;;;;5.25;4.60;;;;;;;2.01;100.00;103031.69;1030888;28;20336;-84
2022/11/12 01:50:22;;;;;;;4.88;4.38;;;;;;;2.01;100.00;103031.69;1030396;28;20395;-84
2022/11/12 01:51:13;;;;;;;7.70;4.65;;;;;;;1.96;100.00;103031.16;1030936;28;20743;-84
2022/11/12 01:52:16;;;;;;;5.20;4.13;;;;;;;1.98;100.00;103025.81;1026009;28;20070;-84
2022/11/12 01:53:09;;;;;;;5.40;4.75;;;;;;;1.96;100.00;103023.28;1026878;28;20053;-84
2022/11/12 01:54:02;;;;;;;7.88;6.13;;;;;;;1.96;100.00;103025.91;1030985;28;20300;-84
2022/11/12 01:54:57;;;;;;;10.88;4.80;;;;;;;2.03;100.00;103024.53;1034908;28;20343;-84
2022/11/12 01:55:48;;;;;;;6.55;5.18;;;;;;;1.95;100.00;103024.25;1034931;28;20327;-84
2022/11/12 01:56:38;;;;;;;10.88;5.78;;;;;;;1.96;100.00;103018.03;1029121;28;20332;-87
2022/11/12 01:57:41;;;;;;;10.02;5.47;;;;;;;1.97;100.00;103019.72;1030573;28;20722;-87
2022/11/12 01:58:32;;;;;;;7.55;5.05;;;;;;;1.97;100.00;103014.47;1034612;28;20344;-87
2022/11/12 01:59:28;;;;;;;8.30;5.43;;;;;;;1.93;100.00;103017.41;1027002;28;20708;-87
2022/11/12 02:00:18;;;;;;;11.07;4.63;;;;;;;1.89;100.00;103022.00;1025618;28;20096;-87
2022/11/12 02:01:08;;;;;;;7.15;5.72;;;;;;;1.86;100.00;103014.34;1035453;28;20777;-87
2022/11/12 02:01:58;;;;;;;6.25;4.85;;;;;;;1.87;100.00;103013.38;1031535;28;20723;-87
2022/11/12 02:02:53;;;;;;;7.18;4.75;;;;;;;1.86;100.00;103019.59;1030712;28;20335;-87
2022/11/12 02:03:43;;;;;;;10.43;5.18;;;;;;;1.89;100.00;103013.28;1021898;28;20410;-87
2022/11/12 02:04:35;;;;;;;10.05;5.07;;;;;;;1.89;100.00;103016.75;1027174;28;20376;-87
2022/11/12 02:05:27;;;;;;;7.63;5.97;;;;;;;1.91;100.00;103020.13;1034408;28;20319;-87
2022/11/12 02:06:18;;;;;;;7.18;5.45;;;;;;;1.93;100.00;103007.72;1031004;28;20289;-87
2022/11/12 02:07:09;;;;;;;8.48;4.78;;;;;;;1.95;100.00;103008.47;1029366;28;20369;-87
2022/11/12 02:08:01;;;;;;;7.38;5.00;;;;;;;1.90;100.00;103002.66;1027087;28;20109;-87
2022/11/12 02:08:52;;;;;;;7.00;5.63;;;;;;;1.94;100.00;103005.94;1026921;28;20301;-87
2022/11/12 02:09:42;;;;;;;10.13;6.65;;;;;;;1.97;100.00;103006.56;1027232;28;20053;-87
2022/11/12 02:10:34;;;;;;;8.95;5.43;;;;;;;1.96;100.00;103009.31;1028374;28;20110;-87
2022/11/12 02:11:24;;;;;;;7.25;5.38;;;;;;;1.95;100.00;103005.00;1034685;28;20343;-87
2022/11/12 02:13:56;;;;;;;7.03;5.88;;;;;;;1.92;100.00;103006.06;1030916;28;20288;-87
2022/11/12 02:14:33;;;;;;;13.18;6.30;;;;;;;1.88;100.00;103012.44;1030384;28;20304;-87
2022/11/12 02:15:24;;;;;;;9.00;5.10;;;;;;;1.82;100.00;103010.25;1030810;28;20360;-87
2022/11/12 02:16:14;;;;;;;;;;;;;;;1.79;100.00;103011.31;1025325;28;20815;-88
2022/11/12 02:17:05;;;;;;;5.75;4.53;;;;;;;1.78;100.00;103009.63;1030359;28;19971;-87
2022/11/12 02:17:55;;;;;;;5.32;4.78;;;;;;;1.78;100.00;103014.03;1031621;28;20369;-88
2022/11/12 02:18:45;;;;;;;5.28;4.63;;;;;;;1.82;100.00;103020.75;1032644;28;20343;-88
2022/11/12 02:19:36;;;;;;;4.88;4.32;;;;;;;1.81;100.00;103019.91;1030167;28;20337;-87
2022/11/12 02:20:32;;;;;;;6.43;4.50;;;;;;;1.80;100.00;103012.13;1025590;28;20401;-87
2022/11/12 02:21:23;;;;;;;6.50;4.72;;;;;;;1.78;100.00;103019.28;1027096;28;20309;-87
2022/11/12 02:22:13;;;;;;;5.57;5.07;;;;;;;1.75;100.00;103019.50;1030694;28;20716;-87
2022/11/12 02:23:05;;;;;;;7.18;5.50;;;;;;;1.73;100.00;103029.28;1033733;28;20404;-87
2022/11/12 02:23:57;;;;;;;8.43;5.22;;;;;;;1.79;100.00;103026.22;1029651;28;20297;-87
2022/11/12 02:24:47;;;;;;;16.70;7.03;;;;;;;1.77;100.00;103015.81;1027510;28;20365;-88
2022/11/12 02:25:38;;;;;;;7.03;3.90;;;;;;;1.79;100.00;103015.72;1026652;28;20701;-87
2022/11/12 02:26:32;;;;;;;5.65;4.43;;;;;;;1.82;100.00;103016.34;1030774;28;20288;-87
2022/11/12 02:27:22;;;;;;;5.28;4.30;;;;;;;1.75;100.00;103003.75;1031407;28;20065;-87
2022/11/12 02:28:12;;;;;;;4.10;3.80;;;;;;;1.74;100.00;103013.41;1022748;29;20350;-87
2022/11/12 02:29:03;;;;;;;5.22;4.75;;;;;;;1.72;100.00;103009.22;1018499;29;20227;-87
2022/11/12 02:29:53;;;;;;;4.47;3.95;;;;;;;1.67;100.00;103011.31;1026281;28;20394;-87
2022/11/12 02:30:48;;;;;;;5.32;3.72;;;;;;;1.72;100.00;103014.47;1029951;28;20562;-87
2022/11/12 02:31:38;;;;;;;4.30;3.90;;;;;;;1.64;100.00;103008.88;1026094;28;20469;-87
2022/11/12 02:32:27;;;;;;;5.88;4.10;;;;;;;1.67;100.00;103011.31;1025286;28;20297;-87
2022/11/12 02:33:17;;;;;;;5.55;3.80;;;;;;;1.66;100.00;103014.88;1030508;28;20288;-88
2022/11/12 02:34:07;;;;;;;4.88;4.35;;;;;;;1.67;100.00;103008.69;1029190;28;20297;-87
2022/11/12 02:34:58;;;;;;;7.35;4.28;;;;;;;1.67;100.00;103011.31;1021829;29;20299;-86
2022/11/12 02:35:48;;;;;;;4.55;3.25;;;;;;;1.61;100.00;103017.78;1026541;28;20129;-87
2022/11/12 02:36:37;;;;;;;7.63;4.35;;;;;;;1.65;100.00;103018.47;1030474;28;20327;-87
2022/11/12 02:37:27;;;;;;;6.00;4.60;;;;;;;1.61;100.00;103017.78;1035313;28;20660;-87
2022/11/12 02:38:17;;;;;;;7.25;4.68;;;;;;;1.61;100.00;103020.44;1030864;28;20285;-87
2022/11/12 02:39:07;;;;;;;4.50;3.90;;;;;;;1.65;100.00;103018.47;1030852;28;20384;-87
2022/11/12 02:39:57;;;;;;;6.25;4.45;;;;;;;1.60;100.00;103020.53;1030691;28;20876;-87
2022/11/12 02:40:47;;;;;;;5.30;4.80;;;;;;;1.64;100.00;103016.75;1025987;28;20289;-87
2022/11/12 02:41:37;;;;;;;14.57;4.32;;;;;;;1.62;100.00;103016.00;1026704;28;20356;-87
2022/11/12 02:42:27;;;;;;;6.00;3.72;;;;;;;1.63;100.00;103017.69;1020102;28;20622;-87
2022/11/12 02:43:17;;;;;;;11.95;4.85;;;;;;;1.61;100.00;103019.59;1026146;28;20332;-88
2022/11/12 02:44:07;;;;;;;5.05;4.53;;;;;;;1.60;100.00;103020.53;1024570;28;20321;-87
2022/11/12 02:44:57;;;;;;;5.13;4.63;;;;;;;1.51;100.00;103022.84;1025728;28;20281;-87
2022/11/12 02:45:47;;;;;;;6.65;4.07;;;;;;;1.49;100.00;103019.47;1029900;28;20436;-87
2022/11/12 02:46:38;;;;;;;6.65;5.05;;;;;;;1.52;100.00;103013.19;1030975;28;20296;-87
2022/11/12 02:47:28;;;;;;;4.53;4.00;;;;;;;1.52;100.00;103018.44;1030386;28;20149;-87
2022/11/12 02:48:18;;;;;;;5.75;3.88;;;;;;;1.44;100.00;103011.06;1029523;28;20360;-87
2022/11/12 02:49:08;;;;;;;6.72;4.45;;;;;;;1.41;100.00;103013.91;1029224;28;20155;-86
2022/11/12 02:49:59;;;;;;;8.82;4.57;;;;;;;1.42;100.00;103001.63;1034880;28;20284;-88
2022/11/12 02:50:48;;;;;;;4.97;3.83;;;;;;;1.48;100.00;103012.56;1030870;28;20316;-85
2022/11/12 02:51:38;;;;;;;4.78;4.18;;;;;;;1.43;100.00;103009.41;1028917;28;20290;-87
2022/11/12 02:52:28;;;;;;;4.43;3.67;;;;;;;1.46;100.00;103005.72;1029962;28;20365;-87
2022/11/12 02:53:18;;;;;;;4.28;3.88;;;;;;;1.45;100.00;103002.25;1030749;28;20293;-87
2022/11/12 02:54:08;;;;;;;5.57;4.05;;;;;;;1.34;100.00;103009.16;1030458;28;20364;-87
2022/11/12 02:54:59;;;;;;;6.15;5.40;;;;;;;1.36;100.00;103008.09;1026259;28;20293;-88
2022/11/12 02:55:50;;;;;;;4.47;4.00;;;;;;;1.36;100.00;103012.50;1029313;28;20062;-87
2022/11/12 02:56:40;;;;;;;6.22;3.55;;;;;;;1.39;100.00;103007.09;1030443;28;20412;-87
2022/11/12 02:57:30;;;;;;;7.18;4.07;;;;;;;1.39;100.00;103002.69;1026420;28;20286;-87
2022/11/12 02:58:23;;;;;;;6.13;4.40;;;;;;;1.39;100.00;103007.94;1030776;28;20817;-87
2022/11/12 02:59:14;;;;;;;5.07;4.18;;;;;;;1.40;100.00;103004.34;1031263;28;20413;-87
2022/11/12 03:00:06;;;;;;;6.53;4.05;;;;;;;1.36;100.00;103002.84;1034403;28;20647;-87
2022/11/12 03:00:57;;;;;;;4.85;4.35;;;;;;;1.39;100.00;103004.47;1030747;28;20647;-87
2022/11/12 03:01:48;;;;;;;;;;;;;;;1.41;100.00;103005.19;1030354;28;20341;-86
2022/11/12 03:02:41;;;;;;;4.07;3.67;;;;;;;1.43;100.00;102998.91;1031365;28;19975;-87
2022/11/12 03:03:32;;;;;;;7.53;4.88;;;;;;;1.41;100.00;102995.53;1030716;28;20419;-87
2022/11/12 03:04:21;;;;;;;7.22;4.43;;;;;;;1.40;100.00;102999.09;1035740;28;20296;-86
2022/11/12 03:05:13;;;;;;;5.90;4.78;;;;;;;1.36;100.00;102997.59;1033916;28;20404;-87
2022/11/12 03:06:04;;;;;;;;;;;;;;;1.29;100.00;102991.09;1031849;28;20054;-86
2022/11/12 03:06:53;;;;;;;3.88;3.58;;;;;;;1.27;100.00;102998.22;1031736;28;19928;-87
2022/11/12 03:07:43;;;;;;;6.25;4.55;;;;;;;1.34;100.00;102994.25;1027191;28;20740;-87
2022/11/12 03:08:33;;;;;;;7.15;5.65;;;;;;;1.35;100.00;102995.91;1028840;28;20416;-87
2022/11/12 03:09:24;;;;;;;4.97;4.10;;;;;;;1.30;100.00;102992.78;1031503;28;20337;-86
2022/11/12 03:10:14;;;;;;;5.45;4.90;;;;;;;1.29;100.00;102995.50;1028753;28;20073;-87
2022/11/12 03:11:12;;;;;;;6.45;4.65;;;;;;;1.26;100.00;102996.53;1030968;28;20377;-87
2022/11/12 03:12:02;;;;;;;8.95;4.60;;;;;;;1.27;100.00;102992.97;1031053;28;20284;-86
2022/11/12 03:12:55;;;;;;;5.55;4.25;;;;;;;1.24;100.00;102995.81;1021781;28;20315;-86
2022/11/12 03:13:45;;;;;;;8.35;5.70;;;;;;;1.26;100.00;102991.31;1031328;28;20110;-87
2022/11/12 03:14:35;;;;;;;6.95;4.20;;;;;;;1.21;100.00;102996.03;1031547;28;20656;-87
2022/11/12 03:15:26;;;;;;;7.65;4.80;;;;;;;1.21;100.00;102991.59;1031792;28;20683;-87
2022/11/12 03:16:17;;;;;;;;;;;;;;;1.26;100.00;103001.78;1034359;28;20420;-86
2022/11/12 03:17:06;;;;;;;7.68;5.85;;;;;;;1.23;100.00;102994.13;1031047;28;19940;-87
2022/11/12 03:17:58;;;;;;;5.68;4.88;;;;;;;1.25;100.00;102994.88;1030481;28;20353;-86
2022/11/12 03:18:48;;;;;;;6.60;4.68;;;;;;;1.27;100.00;102994.75;1031479;28;20335;-87
2022/11/12 03:19:38;;;;;;;8.45;5.95;;;;;;;1.29;100.00;102998.13;1026722;28;20050;-88
2022/11/12 03:20:28;;;;;;;5.43;4.88;;;;;;;1.30;100.00;102995.41;1027178;28;21278;-87
2022/11/12 03:21:19;;;;;;;5.88;5.00;;;;;;;1.31;100.00;102994.44;1027387;28;20405;-87
2022/11/12 03:22:09;;;;;;;5.05;4.55;;;;;;;1.30;100.00;102984.06;1027231;28;20089;-87
2022/11/12 03:23:06;;;;;;;8.35;4.97;;;;;;;1.31;100.00;102983.94;1023689;29;20290;-87
2022/11/12 03:23:56;;;;;;;5.55;4.93;;;;;;;1.33;100.00;102992.56;1023801;29;20339;-87
2022/11/12 03:24:46;;;;;;;7.30;4.88;;;;;;;1.32;100.00;102983.00;1023679;29;20282;-86
2022/11/12 03:25:36;;;;;;;9.85;5.55;;;;;;;1.34;100.00;102991.63;1019003;29;20849;-87
2022/11/12 03:26:26;;;;;;;6.53;5.38;;;;;;;1.39;100.00;102986.91;1021311;29;20295;-86
2022/11/12 03:27:24;;;;;;;6.82;5.15;;;;;;;1.45;100.00;102996.16;1027784;28;20054;-87
2022/11/12 03:28:15;;;;;;;7.07;5.13;;;;;;;1.42;100.00;102994.59;1035288;28;20299;-88
2022/11/12 03:29:05;;;;;;;5.85;4.75;;;;;;;1.37;100.00;102994.06;1035420;28;20284;-86
2022/11/12 03:29:55;;;;;;;5.97;5.15;;;;;;;1.40;100.00;102991.22;1034445;28;20452;-87
2022/11/12 03:30:45;;;;;;;8.48;5.10;;;;;;;1.42;100.00;102997.22;1027095;28;20289;-87
2022/11/12 03:31:35;;;;;;;11.02;6.10;;;;;;;1.47;100.00;102997.75;1027228;28;20409;-87
2022/11/12 03:32:25;;;;;;;7.38;5.35;;;;;;;1.50;100.00;102997.53;1032428;28;20344;-87
2022/11/12 03:33:16;;;;;;;5.75;5.15;;;;;;;1.50;100.00;102991.44;1031264;28;20073;-87
2022/11/12 03:34:06;;;;;;;6.82;4.63;;;;;;;1.37;100.00;102988.81;1027259;28;20728;-87
2022/11/12 03:34:57;;;;;;;5.95;4.95;;;;;;;1.40;100.00;102993.84;1024919;28;20058;-88
2022/11/12 03:35:47;;;;;;;4.82;4.43;;;;;;;1.41;100.00;102994.69;1027320;28;20364;-87
2022/11/12 03:36:37;;;;;;;8.10;5.15;;;;;;;1.42;100.00;102991.97;1029275;28;20598;-87
2022/11/12 03:37:27;;;;;;;5.28;4.13;;;;;;;1.37;100.00;102994.06;1029169;28;20863;-87
2022/11/12 03:38:16;;;;;;;7.05;4.60;;;;;;;1.39;100.00;102986.91;1027413;28;20329;-87
2022/11/12 03:39:07;;;;;;;7.60;4.15;;;;;;;1.35;100.00;102992.47;1030880;28;20344;-87
2022/11/12 03:39:57;;;;;;;5.93;4.20;;;;;;;1.38;100.00;102994.91;1028930;28;20313;-87
2022/11/12 03:40:48;;;;;;;10.43;5.40;;;;;;;1.36;100.00;102992.34;1031211;28;20312;-87
2022/11/12 03:41:38;;;;;;;5.45;4.53;;;;;;;1.28;100.00;102999.06;1035589;28;20342;-87
2022/11/12 03:42:27;;;;;;;6.50;4.65;;;;;;;1.29;100.00;102991.09;1030757;28;20436;-87
2022/11/12 03:43:17;;;;;;;5.35;4.85;;;;;;;1.28;100.00;102994.66;1031436;28;20325;-87
2022/11/12 03:44:07;;;;;;;5.60;4.65;;;;;;;1.32;100.00;103001.38;1035347;28;20297;-87
2022/11/12 03:44:57;;;;;;;7.72;5.32;;;;;;;1.32;100.00;102998.75;1030528;28;20284;-86
2022/11/12 03:45:47;;;;;;;6.55;5.10;;;;;;;1.24;100.00;103004.53;1026459;28;20667;-87
2022/11/12 03:46:37;;;;;;;7.55;4.65;;;;;;;1.27;100.00;103003.47;1028216;28;20421;-86
2022/11/12 03:47:33;;;;;;;6.05;4.68;;;;;;;1.26;100.00;103004.41;1031196;28;20368;-87
2022/11/12 03:48:23;;;;;;;6.18;4.90;;;;;;;1.24;100.00;103003.69;1023805;29;20393;-88
2022/11/12 03:49:13;;;;;;;6.75;4.35;;;;;;;1.26;100.00;103004.41;1023243;29;20723;-87
2022/11/12 03:50:05;;;;;;;6.80;5.30;;;;;;;1.27;100.00;102997.38;1031006;28;20289;-87
2022/11/12 03:50:58;;;;;;;8.32;5.55;;;;;;;1.32;100.00;102998.75;1035032;28;20296;-87
2022/11/12 03:51:48;;;;;;;5.85;5.05;;;;;;;1.29;100.00;103000.75;1035505;28;20291;-85
2022/11/12 03:52:43;;;;;;;5.50;4.72;;;;;;;1.28;100.00;103001.69;1031546;28;20296;-87
2022/11/12 03:53:33;;;;;;;9.02;5.32;;;;;;;1.24;100.00;102998.44;1025817;28;20294;-87
2022/11/12 03:54:23;;;;;;;8.88;4.53;;;;;;;1.26;100.00;103004.41;1027120;28;20380;-87
2022/11/12 03:55:15;;;;;;;5.57;5.00;;;;;;;1.25;100.00;102994.88;1026010;28;20337;-86
2022/11/12 03:56:05;;;;;;;7.30;5.07;;;;;;;1.21;100.00;102998.66;1029620;28;20285;-87
2022/11/12 03:56:55;;;;;;;5.00;4.47;;;;;;;1.24;100.00;102998.44;1030012;28;20309;-87
2022/11/12 03:57:47;;;;;;;6.28;5.13;;;;;;;1.28;100.00;102999.91;1026987;28;20377;-87
2022/11/12 03:58:37;;;;;;;10.40;5.78;;;;;;;1.29;100.00;102995.50;1031070;28;20623;-87
2022/11/12 03:59:27;;;;;;;10.25;5.43;;;;;;;1.27;100.00;103003.47;1027603;28;20290;-87